KECG/ECG METAR and TAF weather

Enter ICAO airport designator
Station Type Date Time Source
KECG METAR 2022/01/26 19:54 UTC NOAA

KECG 261954Z 01014KT 10SM BKN055 02/M07 A3033 RMK AO2 PK WND 01027/1903 SLP269 T00171072


Station Type Date Time Source
KECG Decoded METAR 2022/01/26 19:54 UTC NOAA

ELIZABETH CITY C/G REGN AIRPORT , NC, United States (KECG) 36-15N 076-10W 11M
Jan 26, 2022 - 02:54 PM EST / 2022.01.26 1954 UTC
Wind: from the N (010 degrees) at 16 MPH (14 KT):0
Visibility: 10 mile(s):0
Sky conditions: mostly cloudy
Temperature: 35.1 F (1.7 C)
Dew Point: 19.0 F (-7.2 C)
Relative Humidity: 51%
Pressure (altimeter): 30.33 in. Hg (1027 hPa)
ob: KECG 261954Z 01014KT 10SM BKN055 02/M07 A3033 RMK AO2 PK WND 01027/1903 SLP269 T00171072
cycle: 20

Station Type Date Time Source
KECG TAF 2022/01/26 18:27 UTC NOAA

TAF KECG 261720Z 2618/2718 35018KT P6SM BKN070
FM262200 01012KT P6SM SCT250
FM270700 02006KT P6SM SKC

Example: see airport list